createdAt,value
2022-09-01T00:00:40.744Z,95.64
2022-09-01T00:01:40.694Z,95.95
2022-09-01T00:02:40.826Z,95.64
2022-09-01T00:03:40.682Z,95.44
2022-09-01T00:04:40.712Z,95.64
2022-09-01T00:05:40.667Z,95.34
2022-09-01T00:06:40.681Z,95.75
2022-09-01T00:07:40.644Z,95.85
2022-09-01T00:08:40.642Z,95.85
2022-09-01T00:09:40.630Z,95.95
2022-09-01T00:10:40.623Z,95.75
2022-09-01T00:11:40.637Z,96.00
2022-09-01T00:12:40.611Z,96.00
2022-09-01T00:13:40.601Z,95.95
2022-09-01T00:14:41.611Z,96.30
2022-09-01T00:15:41.670Z,96.20
2022-09-01T00:16:40.597Z,96.20
2022-09-01T00:17:40.564Z,96.00
2022-09-01T00:18:40.559Z,96.41
2022-09-01T00:19:40.553Z,96.10
2022-09-01T00:20:40.543Z,97.22
2022-09-01T00:21:40.559Z,96.92
2022-09-01T00:22:40.527Z,96.61
2022-09-01T00:23:40.518Z,96.51
2022-09-01T00:24:40.509Z,96.51
2022-09-01T00:25:40.503Z,96.81
2022-09-01T00:26:40.522Z,97.12
2022-09-01T00:27:40.491Z,97.12
2022-09-01T00:28:40.478Z,97.22
2022-09-01T00:29:43.978Z,96.51
2022-09-01T00:30:40.492Z,96.86
2022-09-01T00:31:40.480Z,96.30
2022-09-01T00:32:40.447Z,96.20
2022-09-01T00:33:40.445Z,96.20
2022-09-01T00:34:40.430Z,96.20
2022-09-01T00:35:40.425Z,96.04
2022-09-01T00:36:40.438Z,96.34
2022-09-01T00:37:40.412Z,97.06
2022-09-01T00:38:40.401Z,96.55
2022-09-01T00:39:40.395Z,96.86
2022-09-01T00:40:40.422Z,97.16
2022-09-01T00:41:40.406Z,97.16
2022-09-01T00:42:40.370Z,96.55
2022-09-01T00:43:40.359Z,96.55
2022-09-01T00:44:40.354Z,96.96
2022-09-01T00:45:40.346Z,96.86
2022-09-01T00:46:41.391Z,96.96
2022-09-01T00:47:41.328Z,96.86
2022-09-01T00:48:40.322Z,96.55
2022-09-01T00:49:40.316Z,96.86
2022-09-01T00:50:40.307Z,96.66
2022-09-01T00:51:40.325Z,97.16
2022-09-01T00:52:40.289Z,97.16
2022-09-01T00:53:40.283Z,96.86
2022-09-01T00:54:40.273Z,97.16
2022-09-01T00:55:41.274Z,97.67
2022-09-01T00:56:40.285Z,96.66
2022-09-01T00:57:41.251Z,97.16
2022-09-01T00:58:40.241Z,97.21
2022-09-01T00:59:40.235Z,97.52
2022-09-01T01:00:40.228Z,97.57
2022-09-01T01:01:40.311Z,96.91
2022-09-01T01:02:40.239Z,96.55
2022-09-01T01:03:40.203Z,97.62
2022-09-01T01:04:41.196Z,97.31
2022-09-01T01:05:40.185Z,97.21
2022-09-01T01:06:40.205Z,97.21
2022-09-01T01:07:40.170Z,97.41
2022-09-01T01:08:40.161Z,97.21
2022-09-01T01:09:40.152Z,97.52
2022-09-01T01:10:40.153Z,97.72
2022-09-01T01:11:40.160Z,97.41
2022-09-01T01:12:40.127Z,97.21
2022-09-01T01:13:40.121Z,97.21
2022-09-01T01:14:40.112Z,97.25
2022-09-01T01:15:40.102Z,97.21
2022-09-01T01:16:40.150Z,97.52
2022-09-01T01:17:40.086Z,97.52
2022-09-01T01:18:40.079Z,97.62
2022-09-01T01:19:40.071Z,97.11
2022-09-01T01:20:40.060Z,97.15
2022-09-01T01:21:40.081Z,97.31
2022-09-01T01:22:40.049Z,97.72
2022-09-01T01:23:40.038Z,97.21
2022-09-01T01:24:40.030Z,96.70
2022-09-01T01:25:40.022Z,96.91
2022-09-01T01:26:40.039Z,96.74
2022-09-01T01:27:43.117Z,96.91
2022-09-01T01:28:39.999Z,97.21
2022-09-01T01:29:39.991Z,97.00
2022-09-01T01:30:40.051Z,97.00
2022-09-01T01:31:39.999Z,96.64
2022-09-01T01:32:39.970Z,97.05
2022-09-01T01:33:39.958Z,96.95
2022-09-01T01:34:39.948Z,96.84
2022-09-01T01:35:39.943Z,97.15
2022-09-01T01:36:39.966Z,96.64
2022-09-01T01:37:39.925Z,96.64
2022-09-01T01:38:39.917Z,97.15
2022-09-01T01:39:39.915Z,97.66
2022-09-01T01:40:39.933Z,97.66
2022-09-01T01:41:39.926Z,97.56
2022-09-01T01:42:39.893Z,97.77
2022-09-01T01:43:39.888Z,97.15
2022-09-01T01:44:39.875Z,97.05
2022-09-01T01:45:39.915Z,97.20
2022-09-01T01:46:39.887Z,97.15
2022-09-01T01:47:39.852Z,96.99
2022-09-01T01:48:39.846Z,96.69
2022-09-01T01:49:39.837Z,97.40
2022-09-01T01:50:39.826Z,97.30
2022-09-01T01:51:39.846Z,96.95
2022-09-01T01:52:39.816Z,96.99
2022-09-01T01:53:40.805Z,96.99
2022-09-01T01:54:39.797Z,96.74
2022-09-01T01:55:39.791Z,97.15
2022-09-01T01:56:39.827Z,96.69
2022-09-01T01:57:39.777Z,96.79
2022-09-01T01:58:39.769Z,97.71
2022-09-01T01:59:39.766Z,97.50
2022-09-01T02:00:39.753Z,97.40
2022-09-01T02:01:39.812Z,97.91
2022-09-01T02:02:39.767Z,97.81
2022-09-01T02:03:39.730Z,97.91
2022-09-01T02:04:39.719Z,97.91
2022-09-01T02:05:39.712Z,97.91
2022-09-01T02:06:39.735Z,97.71
2022-09-01T02:07:39.694Z,97.96
2022-09-01T02:08:39.686Z,97.71
2022-09-01T02:09:39.679Z,98.74
2022-09-01T02:10:39.672Z,98.74
2022-09-01T02:11:39.666Z,97.91
2022-09-01T02:12:39.672Z,97.75
2022-09-01T02:13:40.649Z,97.75
2022-09-01T02:14:39.643Z,97.96
2022-09-01T02:15:39.641Z,97.81
2022-09-01T02:16:39.657Z,97.55
2022-09-01T02:17:39.644Z,97.55
2022-09-01T02:18:39.613Z,97.34
2022-09-01T02:19:39.610Z,97.45
2022-09-01T02:20:39.599Z,97.65
2022-09-01T02:21:39.596Z,97.55
2022-09-01T02:22:39.612Z,97.65
2022-09-01T02:23:39.581Z,97.55
2022-09-01T02:24:39.576Z,97.45
2022-09-01T02:25:53.874Z,97.60
2022-09-01T02:26:41.557Z,97.70
2022-09-01T02:27:39.585Z,97.60
2022-09-01T02:28:39.543Z,97.39
2022-09-01T02:29:43.388Z,97.75
2022-09-01T02:30:39.569Z,97.91
2022-09-01T02:31:39.520Z,98.21
2022-09-01T02:32:39.535Z,98.00
2022-09-01T02:33:39.501Z,98.21
2022-09-01T02:34:39.493Z,98.32
2022-09-01T02:35:39.492Z,98.42
2022-09-01T02:36:39.478Z,98.32
2022-09-01T02:37:39.499Z,98.62
2022-09-01T02:38:39.463Z,98.62
2022-09-01T02:39:39.455Z,98.83
2022-09-01T02:40:39.545Z,98.72
2022-09-01T02:41:39.441Z,98.72
2022-09-01T02:42:39.457Z,98.83
2022-09-01T02:43:39.426Z,98.32
2022-09-01T02:44:41.400Z,98.11
2022-09-01T02:45:40.431Z,98.00
2022-09-01T02:46:39.404Z,97.91
2022-09-01T02:47:39.425Z,98.00
2022-09-01T02:48:39.389Z,98.00
2022-09-01T02:49:39.379Z,99.03
2022-09-01T02:50:39.372Z,98.52
2022-09-01T02:51:39.365Z,98.21
2022-09-01T02:52:39.387Z,98.87
2022-09-01T02:53:39.426Z,98.77
2022-09-01T02:54:39.338Z,98.87
2022-09-01T02:55:39.332Z,98.72
2022-09-01T02:56:39.328Z,98.87
2022-09-01T02:57:39.344Z,98.77
2022-09-01T02:58:39.310Z,98.77
2022-09-01T02:59:43.583Z,98.52
2022-09-01T03:00:40.288Z,98.87
2022-09-01T03:01:39.326Z,98.67
2022-09-01T03:02:39.276Z,98.87
2022-09-01T03:03:39.292Z,98.36
2022-09-01T03:04:39.314Z,98.25
2022-09-01T03:05:39.251Z,98.05
2022-09-01T03:06:39.249Z,98.05
2022-09-01T03:07:39.234Z,97.85
2022-09-01T03:08:39.254Z,98.46
2022-09-01T03:09:39.224Z,98.67
2022-09-01T03:10:39.211Z,98.87
2022-09-01T03:11:39.208Z,98.67
2022-09-01T03:12:39.202Z,98.77
2022-09-01T03:13:39.218Z,98.42
2022-09-01T03:14:39.183Z,98.36
2022-09-01T03:15:39.176Z,98.77
2022-09-01T03:16:39.318Z,98.77
2022-09-01T03:17:39.162Z,98.25
2022-09-01T03:18:39.701Z,98.67
2022-09-01T03:19:39.147Z,98.57
2022-09-01T03:20:39.138Z,98.57
2022-09-01T03:21:39.128Z,98.77
2022-09-01T03:22:39.124Z,98.67
2022-09-01T03:23:39.139Z,98.77
2022-09-01T03:24:39.110Z,98.36
2022-09-01T03:25:39.096Z,98.20
2022-09-01T03:26:39.179Z,97.79
2022-09-01T03:27:39.083Z,98.36
2022-09-01T03:28:39.095Z,98.16
2022-09-01T03:29:39.070Z,98.36
2022-09-01T03:30:39.058Z,98.87
2022-09-01T03:31:39.066Z,98.46
2022-09-01T03:32:39.052Z,98.87
2022-09-01T03:33:39.059Z,98.87
2022-09-01T03:34:39.027Z,98.77
2022-09-01T03:35:39.018Z,98.05
2022-09-01T03:36:39.012Z,98.05
2022-09-01T03:37:39.000Z,98.87
2022-09-01T03:38:39.017Z,98.71
2022-09-01T03:39:38.985Z,98.87
2022-09-01T03:40:39.074Z,98.25
2022-09-01T03:41:38.964Z,98.92
2022-09-01T03:42:38.963Z,98.46
2022-09-01T03:43:38.983Z,98.46
2022-09-01T03:44:39.942Z,98.46
2022-09-01T03:45:39.001Z,98.57
2022-09-01T03:46:38.927Z,98.77
2022-09-01T03:47:38.936Z,98.67
2022-09-01T03:48:38.942Z,98.87
2022-09-01T03:49:38.902Z,98.92
2022-09-01T03:50:38.897Z,98.92
2022-09-01T03:51:38.973Z,98.41
2022-09-01T03:52:38.895Z,98.82
2022-09-01T03:53:38.899Z,98.77
2022-09-01T03:54:38.866Z,98.71
2022-09-01T03:55:38.865Z,98.82
2022-09-01T03:56:38.848Z,99.22
2022-09-01T03:57:38.841Z,98.71
2022-09-01T03:58:38.867Z,98.82
2022-09-01T03:59:38.828Z,98.92
2022-09-01T04:00:38.881Z,98.97
2022-09-01T04:01:38.848Z,99.12
2022-09-01T04:02:38.854Z,98.41
2022-09-01T04:03:38.827Z,98.16
2022-09-01T04:04:39.793Z,98.67
2022-09-01T04:05:38.786Z,98.61
2022-09-01T04:06:38.780Z,99.18
2022-09-01T04:07:38.772Z,99.12
2022-09-01T04:08:38.791Z,99.02
2022-09-01T04:09:38.760Z,99.18
2022-09-01T04:10:38.752Z,99.28
2022-09-01T04:11:42.465Z,99.08
2022-09-01T04:12:39.737Z,99.02
2022-09-01T04:13:38.751Z,98.71
2022-09-01T04:14:38.721Z,98.77
2022-09-01T04:15:38.717Z,98.67
2022-09-01T04:16:38.783Z,98.67
2022-09-01T04:17:38.696Z,98.87
2022-09-01T04:18:38.714Z,98.67
2022-09-01T04:19:38.684Z,98.57
2022-09-01T04:20:38.674Z,99.08
2022-09-01T04:21:38.667Z,99.28
2022-09-01T04:22:38.659Z,98.87
2022-09-01T04:23:38.677Z,98.57
2022-09-01T04:24:41.091Z,98.77
2022-09-01T04:25:39.636Z,98.67
2022-09-01T04:26:38.627Z,98.36
2022-09-01T04:27:38.622Z,98.77
2022-09-01T04:28:38.644Z,98.87
2022-09-01T04:29:38.614Z,98.32
2022-09-01T04:30:38.605Z,98.57
2022-09-01T04:31:38.686Z,98.67
2022-09-01T04:32:38.581Z,98.05
2022-09-01T04:33:38.602Z,98.72
2022-09-01T04:34:38.567Z,98.21
2022-09-01T04:35:38.557Z,98.52
2022-09-01T04:36:38.550Z,98.62
2022-09-01T04:37:38.539Z,98.00
2022-09-01T04:38:38.558Z,97.95
2022-09-01T04:39:38.526Z,97.85
2022-09-01T04:40:38.618Z,97.91
2022-09-01T04:41:38.507Z,98.00
2022-09-01T04:42:38.492Z,97.80
2022-09-01T04:43:39.521Z,97.91
2022-09-01T04:44:38.485Z,97.91
2022-09-01T04:45:38.522Z,98.00
2022-09-01T04:46:38.474Z,97.91
2022-09-01T04:47:38.469Z,97.96
2022-09-01T04:48:38.483Z,97.96
2022-09-01T04:49:38.448Z,97.45
2022-09-01T04:50:38.445Z,97.65
2022-09-01T04:51:38.434Z,97.04
2022-09-01T04:52:38.422Z,97.04
2022-09-01T04:53:38.441Z,97.34
2022-09-01T04:54:38.408Z,97.75
2022-09-01T04:55:38.399Z,97.75
2022-09-01T04:56:38.389Z,96.63
2022-09-01T04:57:38.382Z,97.09
2022-09-01T04:58:38.399Z,97.15
2022-09-01T04:59:38.363Z,96.14
2022-09-01T05:00:38.410Z,95.13
2022-09-01T05:01:38.349Z,93.66
2022-09-01T05:02:38.401Z,93.02
2022-09-01T05:03:38.361Z,90.53
2022-09-01T05:04:38.336Z,89.42
2022-09-01T05:05:38.321Z,88.02
2022-09-01T05:06:38.307Z,87.32
2022-09-01T05:07:38.302Z,85.55
2022-09-01T05:08:38.336Z,85.05
2022-09-01T05:09:38.307Z,84.48
2022-09-01T05:10:38.278Z,85.09
2022-09-01T05:11:38.271Z,84.34
2022-09-01T05:12:38.263Z,83.04
2022-09-01T05:13:38.281Z,80.73
2022-09-01T05:14:38.244Z,79.13
2022-09-01T05:15:38.243Z,77.28
2022-09-01T05:16:38.271Z,76.39
2022-09-01T05:17:38.218Z,75.51
2022-09-01T05:18:38.243Z,74.06
2022-09-01T05:19:38.207Z,73.28
2022-09-01T05:20:38.198Z,71.60
2022-09-01T05:21:38.189Z,70.09
2022-09-01T05:22:38.178Z,70.69
2022-09-01T05:23:38.172Z,70.93
2022-09-01T05:24:41.955Z,71.67
2022-09-01T05:25:39.164Z,72.58
2022-09-01T05:26:38.152Z,74.47
2022-09-01T05:27:38.151Z,76.77
2022-09-01T05:28:38.131Z,77.89
2022-09-01T05:29:38.147Z,78.70
2022-09-01T05:30:38.115Z,79.04
2022-09-01T05:31:38.229Z,79.96
2022-09-01T05:32:38.093Z,80.91
2022-09-01T05:33:38.092Z,81.01
2022-09-01T05:34:38.110Z,81.15
2022-09-01T05:35:38.078Z,81.11
2022-09-01T05:36:38.058Z,81.56
2022-09-01T05:37:39.058Z,81.25
2022-09-01T05:38:38.052Z,82.57
2022-09-01T05:39:38.118Z,82.37
2022-09-01T05:40:38.116Z,82.71
2022-09-01T05:41:38.031Z,83.06
2022-09-01T05:42:38.021Z,84.52
2022-09-01T05:43:38.011Z,84.62
2022-09-01T05:44:38.030Z,85.98
2022-09-01T05:45:56.523Z,86.65
2022-09-01T05:46:40.102Z,84.84
2022-09-01T05:47:37.985Z,82.50
2022-09-01T05:48:37.976Z,79.10
2022-09-01T05:49:37.991Z,77.13
2022-09-01T05:50:37.952Z,74.46
2022-09-01T05:51:46.423Z,72.07
2022-09-01T05:52:39.940Z,71.60
2022-09-01T05:53:37.934Z,71.70
2022-09-01T05:54:37.961Z,71.70
2022-09-01T05:55:37.917Z,71.57
2022-09-01T05:56:41.409Z,70.59
2022-09-01T05:57:39.905Z,69.22
2022-09-01T05:59:39.917Z,65.34
2022-09-01T06:00:37.879Z,63.98
2022-09-01T06:01:37.924Z,63.11
2022-09-01T06:02:37.973Z,62.21
2022-09-01T06:03:38.464Z,61.15
2022-09-01T06:04:37.879Z,60.85
2022-09-01T06:05:37.845Z,60.19
2022-09-01T06:06:54.994Z,59.36
2022-09-01T06:07:39.868Z,59.27
2022-09-01T06:08:39.148Z,58.24
2022-09-01T06:09:37.840Z,58.01
2022-09-01T06:10:37.814Z,57.39
2022-09-01T06:11:37.801Z,56.73
2022-09-01T06:12:37.791Z,56.73
2022-09-01T06:13:37.790Z,55.18
2022-09-01T06:14:37.808Z,55.48
2022-09-01T06:15:37.775Z,55.03
2022-09-01T06:16:37.841Z,54.11
2022-09-01T06:17:37.754Z,54.13
2022-09-01T06:18:37.745Z,55.48
2022-09-01T06:19:37.768Z,55.91
2022-09-01T06:20:37.730Z,55.58
2022-09-01T06:21:37.722Z,55.91
2022-09-01T06:22:37.721Z,56.36
2022-09-01T06:23:37.710Z,56.98
2022-09-01T06:24:37.728Z,56.26
2022-09-01T06:25:37.697Z,56.63
2022-09-01T06:26:37.688Z,56.48
2022-09-01T06:27:37.679Z,57.39
2022-09-01T06:28:37.674Z,56.96
2022-09-01T06:29:37.692Z,57.11
2022-09-01T06:30:38.661Z,57.68
2022-09-01T06:31:37.697Z,57.54
2022-09-01T06:32:37.651Z,58.61
2022-09-01T06:33:37.642Z,58.81
2022-09-01T06:34:37.661Z,58.61
2022-09-01T06:35:37.620Z,58.08
2022-09-01T06:36:37.617Z,57.57
2022-09-01T06:37:37.614Z,60.22
2022-09-01T06:38:37.601Z,61.15
2022-09-01T06:39:37.619Z,60.12
2022-09-01T06:40:37.709Z,61.02
2022-09-01T06:41:37.581Z,60.19
2022-09-01T06:42:37.604Z,59.30
2022-09-01T06:43:37.569Z,58.86
2022-09-01T06:44:41.039Z,59.27
2022-09-01T06:45:38.560Z,58.24
2022-09-01T06:46:37.598Z,58.01
2022-09-01T06:47:37.543Z,58.14
2022-09-01T06:48:37.537Z,58.71
2022-09-01T06:49:37.559Z,58.31
2022-09-01T06:51:39.522Z,58.04
2022-09-01T06:53:39.506Z,59.89
2022-09-01T06:54:37.498Z,60.12
2022-09-01T06:55:37.519Z,60.42
2022-09-01T06:56:44.664Z,60.12
2022-09-01T06:58:08.330Z,58.49
2022-09-01T06:58:39.475Z,61.05
2022-09-01T06:59:37.464Z,60.65
2022-09-01T07:00:37.498Z,58.72
2022-09-01T07:01:39.233Z,60.02
2022-09-01T07:02:37.494Z,59.42
2022-09-01T07:03:37.438Z,59.30
2022-09-01T07:04:37.427Z,59.52
2022-09-01T07:08:05.319Z,61.05
2022-09-01T07:09:19.074Z,61.02
2022-09-01T07:11:19.641Z,60.15
2022-09-01T07:12:39.371Z,58.75
2022-09-01T07:13:38.806Z,60.32
2022-09-01T07:16:31.931Z,58.89
2022-09-01T07:16:41.925Z,58.62
2022-09-01T07:17:39.335Z,59.75
2022-09-01T07:18:37.328Z,59.42
2022-09-01T07:19:52.524Z,58.72
2022-09-01T07:21:02.877Z,59.35
2022-09-01T07:21:40.759Z,59.45
2022-09-01T07:23:03.357Z,60.15
2022-09-01T07:24:07.681Z,59.98
2022-09-01T07:24:39.282Z,59.18
2022-09-01T07:26:00.446Z,61.08
2022-09-01T07:26:46.736Z,60.98
2022-09-01T07:27:40.624Z,60.91
2022-09-01T07:28:37.406Z,60.21
2022-09-01T07:29:37.245Z,60.88
2022-09-01T07:30:37.267Z,60.55
2022-09-01T07:32:44.170Z,59.35
2022-09-01T07:32:44.263Z,59.22
2022-09-01T07:33:42.612Z,58.89
2022-09-01T07:34:38.935Z,58.99
2022-09-01T07:35:38.232Z,57.79
2022-09-01T07:37:16.120Z,59.27
2022-09-01T07:39:55.412Z,57.21
2022-09-01T07:42:31.192Z,59.35
2022-09-01T07:43:39.145Z,58.69
2022-09-01T07:44:37.141Z,58.49
2022-09-01T07:45:37.158Z,57.07
2022-09-01T07:46:37.720Z,59.30
2022-09-01T07:47:53.772Z,57.44
2022-09-01T07:50:11.968Z,57.71
2022-09-01T07:51:07.469Z,57.09
2022-09-01T07:51:39.248Z,57.14
2022-09-01T07:52:37.082Z,58.67
2022-09-01T07:53:37.076Z,58.14
2022-09-01T07:54:37.066Z,57.37
2022-09-01T07:55:37.084Z,57.84
2022-09-01T07:56:40.206Z,57.61
2022-09-01T07:57:38.051Z,57.34
2022-09-01T07:58:37.037Z,57.64
2022-09-01T07:59:37.035Z,56.54
2022-09-01T08:00:37.048Z,58.12
2022-09-01T08:01:37.107Z,58.99
2022-09-01T08:02:37.066Z,59.35
2022-09-01T08:03:37.005Z,60.55
2022-09-01T08:04:36.992Z,59.15
2022-09-01T08:05:37.014Z,58.89
2022-09-01T08:06:38.634Z,58.26
2022-09-01T08:07:51.774Z,58.34
2022-09-01T08:08:38.964Z,58.09
2022-09-01T08:09:38.205Z,58.59
2022-09-01T08:10:37.973Z,59.14
2022-09-01T08:12:01.567Z,57.31
2022-09-01T08:12:38.940Z,56.56
2022-09-01T08:13:41.402Z,55.24
2022-09-01T08:14:38.926Z,55.83
2022-09-01T08:16:05.694Z,57.37
2022-09-01T08:16:40.293Z,58.55
2022-09-01T08:17:54.228Z,59.48
2022-09-01T08:18:54.075Z,60.91
2022-09-01T08:19:38.885Z,62.60
2022-09-01T08:20:36.903Z,63.06
2022-09-01T08:21:36.869Z,64.63
2022-09-01T08:22:36.856Z,64.96
2022-09-01T08:23:36.857Z,65.13
2022-09-01T08:24:36.846Z,64.93
2022-09-01T08:25:36.863Z,64.66
2022-09-01T08:26:36.839Z,66.47
2022-09-01T08:27:36.820Z,65.44
2022-09-01T08:28:36.818Z,66.54
2022-09-01T08:29:36.816Z,65.26
2022-09-01T08:30:36.836Z,66.07
2022-09-01T08:31:36.887Z,65.77
2022-09-01T08:32:36.783Z,66.50
2022-09-01T08:33:36.778Z,67.31
2022-09-01T08:34:36.768Z,67.07
2022-09-01T08:35:36.786Z,66.60
2022-09-01T08:36:37.754Z,66.57
2022-09-01T08:37:36.746Z,66.50
2022-09-01T08:38:36.742Z,66.91
2022-09-01T08:39:36.734Z,66.40
2022-09-01T08:40:36.795Z,65.39
2022-09-01T08:41:36.723Z,66.50
2022-09-01T08:42:36.711Z,67.21
2022-09-01T08:43:36.703Z,66.27
2022-09-01T08:44:36.693Z,66.60
2022-09-01T08:45:36.685Z,66.57
2022-09-01T08:46:36.773Z,67.14
2022-09-01T08:47:56.012Z,65.50
2022-09-01T08:49:45.500Z,64.37
2022-09-01T08:50:38.669Z,64.07
2022-09-01T08:51:36.640Z,64.67
2022-09-01T08:52:36.627Z,65.00
2022-09-01T08:53:36.623Z,64.57
2022-09-01T08:54:36.619Z,62.40
2022-09-01T08:55:36.631Z,62.90
2022-09-01T08:56:36.593Z,64.34
2022-09-01T08:57:36.592Z,63.84
2022-09-01T08:58:36.588Z,62.93
2022-09-01T08:59:36.580Z,64.64
2022-09-01T09:00:36.594Z,63.26
2022-09-01T09:01:36.586Z,64.14
2022-09-01T09:02:36.658Z,64.14
2022-09-01T09:03:40.932Z,64.11
2022-09-01T09:04:37.542Z,62.60
2022-09-01T09:05:36.553Z,63.20
2022-09-01T09:06:36.520Z,63.20
2022-09-01T09:07:36.503Z,63.10
2022-09-01T09:08:37.503Z,62.44
2022-09-01T09:09:36.498Z,62.01
2022-09-01T09:10:36.521Z,60.78
2022-09-01T09:11:36.484Z,61.31
2022-09-01T09:12:49.086Z,62.84
2022-09-01T09:13:37.460Z,61.11
2022-09-01T09:14:36.454Z,61.34
2022-09-01T09:15:36.522Z,61.24
2022-09-01T09:16:36.443Z,62.74
2022-09-01T09:17:36.434Z,61.04
2022-09-01T09:18:39.938Z,62.18
2022-09-01T09:19:36.422Z,61.18
2022-09-01T09:20:36.439Z,61.18
2022-09-01T09:21:36.401Z,61.48
2022-09-01T09:22:36.396Z,61.18
2022-09-01T09:23:36.396Z,59.78
2022-09-01T09:24:37.072Z,60.25
2022-09-01T09:25:36.398Z,60.05
2022-09-01T09:26:43.499Z,61.25
2022-09-01T09:27:38.366Z,60.62
2022-09-01T09:28:36.353Z,60.22
2022-09-01T09:29:36.342Z,60.02
2022-09-01T09:30:36.428Z,59.38
2022-09-01T09:31:37.528Z,60.95
2022-09-01T09:33:06.516Z,59.85
2022-09-01T09:33:51.128Z,59.02
2022-09-01T09:34:38.302Z,58.52
2022-09-01T09:35:36.331Z,58.89
2022-09-01T09:36:36.317Z,59.39
2022-09-01T09:37:36.295Z,58.44
2022-09-01T09:38:36.272Z,58.84
2022-09-01T09:39:36.263Z,57.91
2022-09-01T09:40:53.300Z,58.06
2022-09-01T09:41:38.306Z,58.89
2022-09-01T09:42:36.773Z,57.97
2022-09-01T09:43:37.239Z,57.41
2022-09-01T09:44:36.223Z,57.18
2022-09-01T09:45:36.215Z,57.98
2022-09-01T09:46:36.325Z,57.48
2022-09-01T09:47:43.674Z,58.11
2022-09-01T09:48:38.189Z,57.68
2022-09-01T09:49:42.226Z,56.68
2022-09-01T09:50:38.175Z,56.76
2022-09-01T09:51:36.199Z,56.06
2022-09-01T09:52:36.166Z,55.43
2022-09-01T09:53:36.156Z,56.76
2022-09-01T09:54:36.147Z,56.76
2022-09-01T09:55:36.144Z,57.86
2022-09-01T09:56:36.184Z,57.15
2022-09-01T09:57:37.126Z,55.26
2022-09-01T09:58:36.120Z,56.91
2022-09-01T09:59:57.181Z,56.51
2022-09-01T10:00:38.122Z,56.96
2022-09-01T10:01:36.161Z,58.00
2022-09-01T10:02:36.101Z,56.87
2022-09-01T10:03:36.140Z,57.46
2022-09-01T10:04:36.079Z,56.74
2022-09-01T10:05:36.070Z,56.84
2022-09-01T10:06:36.088Z,56.31
2022-09-01T10:07:36.056Z,57.01
2022-09-01T10:08:36.045Z,56.68
2022-09-01T10:09:36.043Z,55.39
2022-09-01T10:10:36.033Z,56.48
2022-09-01T10:11:36.123Z,55.39
2022-09-01T10:12:37.015Z,54.59
2022-09-01T10:13:36.010Z,55.39
2022-09-01T10:14:51.967Z,53.69
2022-09-01T10:15:38.000Z,55.09
2022-09-01T10:16:36.066Z,55.41
2022-09-01T10:17:36.350Z,57.01
2022-09-01T10:18:37.128Z,56.41
2022-09-01T10:19:36.109Z,56.54
2022-09-01T10:20:35.955Z,55.74
2022-09-01T10:21:35.973Z,55.97
2022-09-01T10:22:35.944Z,56.77
2022-09-01T10:23:35.934Z,57.09
2022-09-01T10:24:38.923Z,56.87
2022-09-01T10:25:35.918Z,56.99
2022-09-01T10:26:35.936Z,56.96
2022-09-01T10:27:35.902Z,56.77
2022-09-01T10:28:35.891Z,56.94
2022-09-01T10:29:47.513Z,56.84
2022-09-01T10:30:36.924Z,55.58
2022-09-01T10:31:35.892Z,55.09
2022-09-01T10:32:38.672Z,56.76
2022-09-01T10:33:37.843Z,55.06
2022-09-01T10:34:36.847Z,55.49
2022-09-01T10:35:39.734Z,54.29
2022-09-01T10:36:35.871Z,54.61
2022-09-01T10:37:35.825Z,54.19
2022-09-01T10:38:35.813Z,55.39
2022-09-01T10:39:42.891Z,54.69
2022-09-01T10:40:43.517Z,54.66
2022-09-01T10:41:36.831Z,53.66
2022-09-01T10:42:35.779Z,53.99
2022-09-01T10:43:37.995Z,55.46
2022-09-01T10:44:36.769Z,54.34
2022-09-01T10:45:35.848Z,52.76
2022-09-01T10:46:41.915Z,53.29
2022-09-01T10:47:37.874Z,53.22
2022-09-01T10:48:46.319Z,53.81
2022-09-01T10:49:37.729Z,54.36
2022-09-01T10:50:35.932Z,54.16
2022-09-01T10:51:38.850Z,52.07
2022-09-01T10:52:37.737Z,52.14
2022-09-01T10:53:36.701Z,51.87
2022-09-01T10:54:38.503Z,52.27
2022-09-01T10:55:36.678Z,52.34
2022-09-01T10:56:36.838Z,53.24
2022-09-01T10:57:41.893Z,51.97
2022-09-01T10:59:43.501Z,51.89
2022-09-01T11:00:37.722Z,52.22
2022-09-01T11:01:47.846Z,52.82
2022-09-01T11:02:46.370Z,51.72
2022-09-01T11:03:42.112Z,51.72
2022-09-01T11:04:36.688Z,51.42
2022-09-01T11:05:35.596Z,51.62
2022-09-01T11:06:35.613Z,51.89
2022-09-01T11:08:00.446Z,53.36
2022-09-01T11:08:37.573Z,51.57
2022-09-01T11:09:35.564Z,51.79
2022-09-01T11:10:35.849Z,50.27
2022-09-01T11:11:35.580Z,50.65
2022-09-01T11:12:35.533Z,50.35
2022-09-01T11:13:35.531Z,50.82
2022-09-01T11:14:35.524Z,50.13
2022-09-01T11:15:35.553Z,49.60
2022-09-01T11:16:51.893Z,49.93
2022-09-01T11:17:37.572Z,49.01
2022-09-01T11:18:35.489Z,49.03
2022-09-01T11:19:36.487Z,50.43
2022-09-01T11:20:35.477Z,49.73
2022-09-01T11:21:35.503Z,49.63
2022-09-01T11:22:36.234Z,49.03
2022-09-01T11:23:35.450Z,50.32
2022-09-01T11:24:36.054Z,49.60
2022-09-01T11:25:39.093Z,49.21
2022-09-01T11:26:36.460Z,49.70
2022-09-01T11:27:35.419Z,47.91
2022-09-01T11:28:35.424Z,49.03
2022-09-01T11:29:35.407Z,48.35
2022-09-01T11:30:35.392Z,49.57
2022-09-01T11:31:35.497Z,49.30
2022-09-01T11:32:35.407Z,49.12
2022-09-01T11:33:35.373Z,49.15
2022-09-01T11:34:35.401Z,50.32
2022-09-01T11:35:35.358Z,50.00
2022-09-01T11:36:35.390Z,49.40
2022-09-01T11:37:35.399Z,50.17
2022-09-01T11:38:35.339Z,49.08
2022-09-01T11:39:35.327Z,48.97
2022-09-01T11:40:35.358Z,49.08
2022-09-01T11:41:35.315Z,49.63
2022-09-01T11:42:35.334Z,48.53
2022-09-01T11:43:35.296Z,49.01
2022-09-01T11:44:35.290Z,47.61
2022-09-01T11:45:35.321Z,47.91
2022-09-01T11:46:35.269Z,48.11
2022-09-01T11:47:35.301Z,48.71
2022-09-01T11:48:35.255Z,49.23
2022-09-01T11:49:35.250Z,48.23
2022-09-01T11:50:35.250Z,46.96
2022-09-01T11:51:35.235Z,47.36
2022-09-01T11:52:35.254Z,47.86
2022-09-01T11:53:35.216Z,48.68
2022-09-01T11:54:35.209Z,48.16
2022-09-01T11:55:35.205Z,48.85
2022-09-01T11:56:35.201Z,49.57
2022-09-01T11:57:35.216Z,49.87
2022-09-01T11:58:35.182Z,48.05
2022-09-01T11:59:35.178Z,48.35
2022-09-01T12:00:35.165Z,48.43
2022-09-01T12:01:35.159Z,49.63
2022-09-01T12:02:36.649Z,48.03
2022-09-01T12:03:35.255Z,48.63
2022-09-01T12:04:35.140Z,48.08
2022-09-01T12:05:35.137Z,47.68
2022-09-01T12:06:35.126Z,49.65
2022-09-01T12:07:35.132Z,50.02
2022-09-01T12:08:36.107Z,49.60
2022-09-01T12:09:35.100Z,46.61
2022-09-01T12:10:35.091Z,49.40
2022-09-01T12:11:35.084Z,48.21
2022-09-01T12:12:35.105Z,49.88
2022-09-01T12:13:35.072Z,47.89
2022-09-01T12:14:54.967Z,46.49
2022-09-01T12:15:37.058Z,47.69
2022-09-01T12:16:35.098Z,47.79
2022-09-01T12:17:35.071Z,48.28
2022-09-01T12:18:35.035Z,48.86
2022-09-01T12:19:35.027Z,47.14
2022-09-01T12:20:35.034Z,46.99
2022-09-01T12:21:35.008Z,47.49
2022-09-01T12:22:35.027Z,47.99
2022-09-01T12:23:34.998Z,46.67
2022-09-01T12:24:34.984Z,45.78
2022-09-01T12:25:34.984Z,46.17
2022-09-01T12:26:34.960Z,47.79
2022-09-01T12:27:35.999Z,46.61
2022-09-01T12:28:34.955Z,46.72
2022-09-01T12:29:34.951Z,47.81
2022-09-01T12:30:34.945Z,46.39
2022-09-01T12:31:35.025Z,46.89
2022-09-01T12:32:34.962Z,46.79
2022-09-01T12:33:35.007Z,48.01
2022-09-01T12:34:35.917Z,47.63
2022-09-01T12:35:34.904Z,47.53
2022-09-01T12:36:34.968Z,47.24
2022-09-01T12:37:34.900Z,47.75
2022-09-01T12:38:34.908Z,49.05
2022-09-01T12:39:34.874Z,48.75
2022-09-01T12:40:34.877Z,48.65
2022-09-01T12:41:34.893Z,48.46
2022-09-01T12:42:38.969Z,48.43
2022-09-01T12:43:36.876Z,47.81
2022-09-01T12:44:34.834Z,47.81
2022-09-01T12:45:35.359Z,46.79
2022-09-01T12:46:34.817Z,47.69
2022-09-01T12:47:34.806Z,46.99
2022-09-01T12:48:34.829Z,46.22
2022-09-01T12:49:34.796Z,46.42
2022-09-01T12:50:34.791Z,46.12
2022-09-01T12:51:34.777Z,46.72
2022-09-01T12:52:34.775Z,46.72
2022-09-01T12:53:36.522Z,47.51
2022-09-01T12:54:35.755Z,46.61
2022-09-01T12:55:49.992Z,47.21
2022-09-01T12:56:36.743Z,46.69
2022-09-01T12:57:34.737Z,46.49
2022-09-01T12:58:34.752Z,45.78
2022-09-01T12:59:37.293Z,45.78
2022-09-01T13:00:34.715Z,45.97
2022-09-01T13:01:34.832Z,45.95
2022-09-01T13:02:34.951Z,45.55
2022-09-01T13:03:34.790Z,46.03
2022-09-01T13:04:34.681Z,45.93
2022-09-01T13:05:40.898Z,45.06
2022-09-01T13:06:36.661Z,46.53
2022-09-01T13:07:34.659Z,45.95